Terminal Aerodrome Forecast
Issued by NWS

Home | Current Version | Previous Version | Text Only | Print | Product List | Glossary Off
Versions: 1 2 3 4 5 6 7 8 9 10 11 12 13 14 15 16 17

000
FTUS43 KABR 231120
TAFATY
TAF
KATY 231120Z 2312/2412 18015KT P6SM FEW250 WS020/21040KT
     FM231400 18014G20KT P6SM FEW250
     FM232300 20014G22KT P6SM VCTS SCT050CB BKN200
     FM240200 31006KT P6SM BKN150=

USA.gov is the U.S. government's official web portal to all federal, state and local government web resources and services.